Time;durP1;ratioP1;P1;durP2;ratioP2;P2;SDS_P1;SDS_P2;PMS_P1;PMS_P2;Temp;Humidity;BMP_temperature;BMP_pressure;BME280_temperature;BME280_humidity;BME280_pressure;Samples;Min_cycle;Max_cycle;Signal;HPM_P1;HPM_P2
2024/03/09 00:01:15;;;;;;;13.50;7.78;;;;;;;;;;5067030;28;20016;-79
2024/03/09 00:03:42;;;;;;;10.25;6.30;;;;;;;;;;5044554;28;20013;-78
2024/03/09 00:06:10;;;;;;;12.68;7.38;;;;;;;;;;5072385;28;20024;-78
2024/03/09 00:08:38;;;;;;;14.15;7.75;;;;;;;;;;5074772;28;20108;-79
2024/03/09 00:11:06;;;;;;;11.73;6.72;;;;;;;;;;5074683;28;20128;-79
2024/03/09 00:13:33;;;;;;;12.90;7.47;;;;;;;;;;5071228;28;20456;-79
2024/03/09 00:15:59;;;;;;;11.93;6.68;;;;;;;;;;5053462;28;20036;-78
2024/03/09 00:18:26;;;;;;;10.70;6.85;;;;;;;;;;5046099;28;20043;-77
2024/03/09 00:20:53;;;;;;;10.23;6.43;;;;;;;;;;5063885;28;20024;-78
2024/03/09 00:23:20;;;;;;;11.55;7.10;;;;;;;;;;5071362;28;20471;-78
2024/03/09 00:25:46;;;;;;;9.50;6.47;;;;;;;;;;5055550;28;20115;-78
2024/03/09 00:28:14;;;;;;;10.18;6.45;;;;;;;;;;5061727;28;20536;-78
2024/03/09 00:30:41;;;;;;;10.48;6.38;;;;;;;;;;5047168;28;20471;-78
2024/03/09 00:33:07;;;;;;;11.57;7.38;;;;;;;;;;5057909;28;20090;-77
2024/03/09 00:35:36;;;;;;;10.90;6.55;;;;;;;;;;5066122;28;20040;-77
2024/03/09 00:38:03;;;;;;;11.75;6.45;;;;;;;;;;5062944;28;20104;-79
2024/03/09 00:40:30;;;;;;;10.50;6.00;;;;;;;;;;5079803;28;20023;-78
2024/03/09 00:42:57;;;;;;;11.57;6.07;;;;;;;;;;5078803;28;20028;-79
2024/03/09 00:45:24;;;;;;;10.85;6.82;;;;;;;;;;5063071;28;20328;-78
2024/03/09 00:47:50;;;;;;;9.52;6.82;;;;;;;;;;5054794;28;20475;-79
2024/03/09 00:50:17;;;;;;;8.95;5.25;;;;;;;;;;5055137;28;20100;-78
2024/03/09 00:52:44;;;;;;;8.30;5.63;;;;;;;;;;5070017;28;20012;-79
2024/03/09 00:55:10;;;;;;;9.85;5.75;;;;;;;;;;5074885;28;20035;-79
2024/03/09 00:57:41;;;;;;;7.90;5.15;;;;;;;;;;5057174;28;20203;-79
2024/03/09 01:00:11;;;;;;;9.18;5.38;;;;;;;;;;5059890;28;20025;-78
2024/03/09 01:02:38;;;;;;;9.05;5.30;;;;;;;;;;5076882;28;20490;-79
2024/03/09 01:05:05;;;;;;;8.27;5.00;;;;;;;;;;5056897;28;20024;-77
2024/03/09 01:07:32;;;;;;;8.15;5.25;;;;;;;;;;5077436;28;20020;-78
2024/03/09 01:09:59;;;;;;;9.45;5.18;;;;;;;;;;5057338;28;20089;-78
2024/03/09 01:12:26;;;;;;;8.85;5.85;;;;;;;;;;5079838;28;20025;-78
2024/03/09 01:14:53;;;;;;;10.48;5.90;;;;;;;;;;5070161;28;20116;-79
2024/03/09 01:17:23;;;;;;;9.52;5.07;;;;;;;;;;5073614;28;20432;-77
2024/03/09 01:19:50;;;;;;;9.45;5.60;;;;;;;;;;5062822;28;20043;-77
2024/03/09 01:22:17;;;;;;;9.02;5.88;;;;;;;;;;5078779;28;20487;-78
2024/03/09 01:24:44;;;;;;;7.43;4.32;;;;;;;;;;5060753;28;20029;-78
2024/03/09 01:27:10;;;;;;;7.35;4.75;;;;;;;;;;5052219;28;20024;-79
2024/03/09 01:29:37;;;;;;;8.27;4.63;;;;;;;;;;5045867;28;20080;-76
2024/03/09 01:32:04;;;;;;;6.65;3.92;;;;;;;;;;5074332;28;20459;-78
2024/03/09 01:34:31;;;;;;;7.57;4.72;;;;;;;;;;5054281;28;20071;-79
2024/03/09 01:36:57;;;;;;;6.50;3.83;;;;;;;;;;5052699;28;20039;-80
2024/03/09 01:39:23;;;;;;;6.75;3.83;;;;;;;;;;5054594;28;20021;-78
2024/03/09 01:41:50;;;;;;;5.47;3.90;;;;;;;;;;5077511;28;20085;-77
2024/03/09 01:44:16;;;;;;;6.30;3.80;;;;;;;;;;5086133;28;20082;-78
2024/03/09 01:46:43;;;;;;;4.75;3.05;;;;;;;;;;5071822;28;20084;-76
2024/03/09 01:49:10;;;;;;;5.70;3.85;;;;;;;;;;5056255;28;20077;-76
2024/03/09 01:51:36;;;;;;;6.32;3.60;;;;;;;;;;5089101;28;20029;-77
2024/03/09 01:54:10;;;;;;;6.85;4.10;;;;;;;;;;5085954;28;20020;-77
2024/03/09 01:56:40;;;;;;;4.68;3.25;;;;;;;;;;5062683;28;20110;-77
2024/03/09 01:59:08;;;;;;;5.68;3.40;;;;;;;;;;5076465;28;20024;-79
2024/03/09 02:01:36;;;;;;;5.05;2.90;;;;;;;;;;5069277;28;20021;-76
2024/03/09 02:04:04;;;;;;;5.30;3.65;;;;;;;;;;5072139;28;20479;-77
2024/03/09 02:06:32;;;;;;;5.65;3.60;;;;;;;;;;5050909;28;20029;-78
2024/03/09 02:08:58;;;;;;;6.15;3.83;;;;;;;;;;5052998;28;20016;-79
2024/03/09 02:11:30;;;;;;;5.35;3.50;;;;;;;;;;5069745;28;20032;-77
2024/03/09 02:13:56;;;;;;;4.47;3.47;;;;;;;;;;5047917;28;20028;-77
2024/03/09 02:16:23;;;;;;;5.57;3.47;;;;;;;;;;5067447;28;20095;-77
2024/03/09 02:18:51;;;;;;;4.70;3.33;;;;;;;;;;5072298;28;20036;-78
2024/03/09 02:21:17;;;;;;;5.95;3.35;;;;;;;;;;5062988;28;20032;-78
2024/03/09 02:23:47;;;;;;;3.40;2.72;;;;;;;;;;5075783;28;20020;-77
2024/03/09 02:26:17;;;;;;;6.55;4.07;;;;;;;;;;5077769;28;20036;-76
2024/03/09 02:28:57;;;;;;;8.10;4.90;;;;;;;;;;5072165;28;20238;-78
2024/03/09 02:31:24;;;;;;;7.00;4.35;;;;;;;;;;5072877;28;20021;-78
2024/03/09 02:33:52;;;;;;;8.32;4.70;;;;;;;;;;5061872;28;20017;-79
2024/03/09 02:36:28;;;;;;;7.30;4.95;;;;;;;;;;5075252;28;20021;-78
2024/03/09 02:38:55;;;;;;;10.55;5.43;;;;;;;;;;5072289;28;20021;-76
2024/03/09 02:41:22;;;;;;;7.55;4.88;;;;;;;;;;5075002;28;20060;-77
2024/03/09 02:43:48;;;;;;;6.50;4.45;;;;;;;;;;5045819;28;20507;-77
2024/03/09 02:46:15;;;;;;;5.80;3.88;;;;;;;;;;5056525;28;20032;-78
2024/03/09 02:48:45;;;;;;;6.78;3.92;;;;;;;;;;5061855;28;20017;-78
2024/03/09 02:51:16;;;;;;;6.32;3.67;;;;;;;;;;5044511;28;20021;-78
2024/03/09 02:53:42;;;;;;;5.22;3.42;;;;;;;;;;5076363;28;20020;-77
2024/03/09 02:56:12;;;;;;;4.60;3.58;;;;;;;;;;5050160;28;20039;-78
2024/03/09 02:58:39;;;;;;;5.10;3.58;;;;;;;;;;5051426;28;20173;-77
2024/03/09 03:01:10;;;;;;;5.88;4.00;;;;;;;;;;5066100;28;20028;-77
2024/03/09 03:03:59;;;;;;;6.55;4.40;;;;;;;;;;5079748;28;20096;-77
2024/03/09 03:06:28;;;;;;;6.25;3.67;;;;;;;;;;5048763;28;20062;-77
2024/03/09 03:09:00;;;;;;;6.03;3.55;;;;;;;;;;5067873;28;20012;-78
2024/03/09 03:11:28;;;;;;;6.40;4.20;;;;;;;;;;5074132;28;20028;-78
2024/03/09 03:13:54;;;;;;;7.40;4.70;;;;;;;;;;5068113;28;20013;-78
2024/03/09 03:16:28;;;;;;;6.97;4.20;;;;;;;;;;5045386;28;20033;-78
2024/03/09 03:18:57;;;;;;;6.78;4.72;;;;;;;;;;5037112;28;20027;-78
2024/03/09 03:21:24;;;;;;;5.38;3.67;;;;;;;;;;5071898;28;20029;-78
2024/03/09 03:23:50;;;;;;;6.85;4.28;;;;;;;;;;5079748;28;20078;-77
2024/03/09 03:26:17;;;;;;;5.55;3.38;;;;;;;;;;5077432;28;20096;-76
2024/03/09 03:28:48;;;;;;;6.20;4.10;;;;;;;;;;5061744;28;20084;-77
2024/03/09 03:31:18;;;;;;;6.65;4.25;;;;;;;;;;5066562;28;20024;-78
2024/03/09 03:33:45;;;;;;;6.50;4.00;;;;;;;;;;5054152;28;20143;-77
2024/03/09 03:36:15;;;;;;;6.05;4.30;;;;;;;;;;5039443;28;20029;-77
2024/03/09 03:38:41;;;;;;;5.47;3.78;;;;;;;;;;5037361;28;20024;-78
2024/03/09 03:41:11;;;;;;;4.55;3.53;;;;;;;;;;5073173;28;20025;-78
2024/03/09 03:43:38;;;;;;;4.63;2.92;;;;;;;;;;5060116;28;20039;-77
2024/03/09 03:46:05;;;;;;;4.72;3.63;;;;;;;;;;5037607;28;20072;-77
2024/03/09 03:48:31;;;;;;;5.05;3.50;;;;;;;;;;5075178;28;20041;-76
2024/03/09 03:50:58;;;;;;;4.15;2.72;;;;;;;;;;5073408;28;20180;-77
2024/03/09 03:53:24;;;;;;;7.13;4.57;;;;;;;;;;5064579;28;20025;-76
2024/03/09 03:55:51;;;;;;;7.25;4.35;;;;;;;;;;5060834;28;20056;-76
2024/03/09 03:58:18;;;;;;;8.35;5.18;;;;;;;;;;5080924;28;20054;-74
2024/03/09 04:00:50;;;;;;;7.78;4.70;;;;;;;;;;5086118;28;20024;-77
2024/03/09 04:03:17;;;;;;;;;;;;;;;;;;5064270;28;20047;-76
2024/03/09 04:05:44;;;;;;;5.28;3.53;;;;;;;;;;5060232;28;19939;-77
2024/03/09 04:08:11;;;;;;;7.10;4.75;;;;;;;;;;5049029;28;20115;-76
2024/03/09 04:10:37;;;;;;;6.95;4.05;;;;;;;;;;5072526;28;20092;-77
2024/03/09 04:13:05;;;;;;;6.10;4.28;;;;;;;;;;5063570;28;20017;-77
2024/03/09 04:15:32;;;;;;;5.93;4.05;;;;;;;;;;5071309;28;20021;-77
2024/03/09 04:18:02;;;;;;;6.63;4.20;;;;;;;;;;5043768;28;20025;-77
2024/03/09 04:20:33;;;;;;;6.30;3.80;;;;;;;;;;5061253;28;20020;-76
2024/03/09 04:23:02;;;;;;;5.63;3.95;;;;;;;;;;5063386;28;20017;-76
2024/03/09 04:25:29;;;;;;;6.63;4.40;;;;;;;;;;5053631;28;20021;-77
2024/03/09 04:27:55;;;;;;;6.40;4.40;;;;;;;;;;5071127;28;20025;-79
2024/03/09 04:30:23;;;;;;;6.63;4.28;;;;;;;;;;5065216;28;20020;-79
2024/03/09 04:32:49;;;;;;;8.07;4.97;;;;;;;;;;5070046;28;20024;-79
2024/03/09 04:35:16;;;;;;;8.63;5.03;;;;;;;;;;5084606;28;20025;-79
2024/03/09 04:37:42;;;;;;;8.90;5.38;;;;;;;;;;5070321;28;20055;-78
2024/03/09 04:40:15;;;;;;;8.07;5.00;;;;;;;;;;5086792;28;20036;-78
2024/03/09 04:42:42;;;;;;;;;;;;;;;;;;5077456;28;20348;-79
2024/03/09 04:45:10;;;;;;;8.45;4.53;;;;;;;;;;5073102;28;20529;-75
2024/03/09 04:47:37;;;;;;;7.47;4.18;;;;;;;;;;5068936;28;20025;-77
2024/03/09 04:50:04;;;;;;;7.30;4.65;;;;;;;;;;5065832;28;20033;-78
2024/03/09 04:52:31;;;;;;;7.07;4.25;;;;;;;;;;5053209;28;20024;-77
2024/03/09 04:54:57;;;;;;;6.53;3.85;;;;;;;;;;5060518;28;20017;-77
2024/03/09 04:57:31;;;;;;;5.25;3.45;;;;;;;;;;5050267;28;20024;-76
2024/03/09 04:59:57;;;;;;;7.75;4.65;;;;;;;;;;5059755;28;20024;-77
2024/03/09 05:02:23;;;;;;;7.72;4.60;;;;;;;;;;5051463;28;20021;-76
2024/03/09 05:04:49;;;;;;;8.05;4.80;;;;;;;;;;5057070;28;20090;-76
2024/03/09 05:07:15;;;;;;;6.63;4.53;;;;;;;;;;5035247;28;20040;-77
2024/03/09 05:09:41;;;;;;;6.32;3.53;;;;;;;;;;5060950;28;20074;-77
2024/03/09 05:12:07;;;;;;;6.97;4.10;;;;;;;;;;5074374;28;20119;-77
2024/03/09 05:14:33;;;;;;;7.20;4.30;;;;;;;;;;5041765;28;20023;-75
2024/03/09 05:17:00;;;;;;;7.22;4.38;;;;;;;;;;5062164;28;20025;-78
2024/03/09 05:19:26;;;;;;;6.53;4.03;;;;;;;;;;5048573;28;20521;-79
2024/03/09 05:21:52;;;;;;;5.90;3.50;;;;;;;;;;5068567;28;20467;-78
2024/03/09 05:24:18;;;;;;;5.72;3.33;;;;;;;;;;5075683;28;20024;-78
2024/03/09 05:26:44;;;;;;;6.55;3.65;;;;;;;;;;5064130;28;20028;-78
2024/03/09 05:29:15;;;;;;;5.57;4.00;;;;;;;;;;5067878;28;20082;-78
2024/03/09 05:31:41;;;;;;;6.43;4.50;;;;;;;;;;5061194;28;20348;-76
2024/03/09 05:34:11;;;;;;;7.07;3.92;;;;;;;;;;5053812;28;20536;-77
2024/03/09 05:36:37;;;;;;;5.38;3.53;;;;;;;;;;5067761;28;20238;-77
2024/03/09 05:39:05;;;;;;;5.35;3.92;;;;;;;;;;5050366;28;20398;-77
2024/03/09 05:41:32;;;;;;;5.30;3.45;;;;;;;;;;5056814;28;20044;-76
2024/03/09 05:43:58;;;;;;;4.20;2.92;;;;;;;;;;5068156;28;20040;-78
2024/03/09 05:46:25;;;;;;;5.90;3.33;;;;;;;;;;5057869;28;20028;-77
2024/03/09 05:48:52;;;;;;;4.68;3.20;;;;;;;;;;5057983;28;20454;-77
2024/03/09 05:51:18;;;;;;;5.40;3.47;;;;;;;;;;5059816;28;20286;-77
2024/03/09 05:53:44;;;;;;;6.13;3.53;;;;;;;;;;5039412;28;20013;-79
2024/03/09 05:56:11;;;;;;;6.85;3.72;;;;;;;;;;5066437;28;20035;-77
2024/03/09 05:58:38;;;;;;;5.10;3.65;;;;;;;;;;5056151;28;20429;-77
2024/03/09 06:01:04;;;;;;;4.35;3.03;;;;;;;;;;5066017;28;20407;-77
2024/03/09 06:03:31;;;;;;;4.25;3.05;;;;;;;;;;5080631;28;20040;-75
2024/03/09 06:05:57;;;;;;;5.45;3.10;;;;;;;;;;5072911;28;20037;-78
2024/03/09 06:08:23;;;;;;;4.32;2.80;;;;;;;;;;5057352;28;20024;-78
2024/03/09 06:10:50;;;;;;;4.45;3.00;;;;;;;;;;5069638;28;20032;-78
2024/03/09 06:13:19;;;;;;;5.05;3.47;;;;;;;;;;5076374;28;20024;-79
2024/03/09 06:15:47;;;;;;;4.15;2.90;;;;;;;;;;5061743;28;20059;-78
2024/03/09 06:18:17;;;;;;;5.20;3.20;;;;;;;;;;5079950;28;20008;-78
2024/03/09 06:20:50;;;;;;;3.85;2.92;;;;;;;;;;5061519;28;20386;-77
2024/03/09 06:23:17;;;;;;;6.25;3.47;;;;;;;;;;5078636;28;20483;-77
2024/03/09 06:25:43;;;;;;;4.85;3.38;;;;;;;;;;5069953;28;20020;-76
2024/03/09 06:28:14;;;;;;;6.57;4.00;;;;;;;;;;5075430;28;20391;-77
2024/03/09 06:30:41;;;;;;;4.13;3.13;;;;;;;;;;5049140;28;20020;-77
2024/03/09 06:33:07;;;;;;;5.20;3.45;;;;;;;;;;5074675;28;20013;-77
2024/03/09 06:35:33;;;;;;;5.63;3.72;;;;;;;;;;5057668;28;20356;-77
2024/03/09 06:38:00;;;;;;;5.43;3.47;;;;;;;;;;5057938;28;20020;-77
2024/03/09 06:40:28;;;;;;;5.28;3.33;;;;;;;;;;5066254;28;20017;-78
2024/03/09 06:43:09;;;;;;;4.50;3.17;;;;;;;;;;5069718;28;20112;-78
2024/03/09 06:45:36;;;;;;;5.30;2.75;;;;;;;;;;5075891;28;20016;-77
2024/03/09 06:48:05;;;;;;;4.45;3.05;;;;;;;;;;5062168;28;20026;-77
2024/03/09 06:50:33;;;;;;;3.88;2.53;;;;;;;;;;5061299;28;20021;-77
2024/03/09 06:52:59;;;;;;;4.65;3.03;;;;;;;;;;5075894;28;20032;-78
2024/03/09 06:55:26;;;;;;;4.15;3.13;;;;;;;;;;5075411;28;20498;-78
2024/03/09 06:57:53;;;;;;;4.40;2.95;;;;;;;;;;5057307;28;20078;-76
2024/03/09 07:00:20;;;;;;;4.30;3.22;;;;;;;;;;5074694;28;20439;-78
2024/03/09 07:02:49;;;;;;;5.68;4.15;;;;;;;;;;5057705;28;20035;-77
2024/03/09 07:05:15;;;;;;;4.95;3.28;;;;;;;;;;5081143;28;20151;-77
2024/03/09 07:07:42;;;;;;;5.93;3.60;;;;;;;;;;5083136;28;20441;-77
2024/03/09 07:10:12;;;;;;;5.97;3.80;;;;;;;;;;5086964;28;20039;-77
2024/03/09 07:12:41;;;;;;;5.18;3.95;;;;;;;;;;5068266;28;20024;-78
2024/03/09 07:15:22;;;;;;;6.57;3.95;;;;;;;;;;5077046;28;20542;-77
2024/03/09 07:17:53;;;;;;;5.47;3.10;;;;;;;;;;5084379;28;20028;-77
2024/03/09 07:20:23;;;;;;;5.47;3.80;;;;;;;;;;5080614;28;20017;-76
2024/03/09 07:22:49;;;;;;;5.07;3.42;;;;;;;;;;5077308;28;20025;-78
2024/03/09 07:25:17;;;;;;;4.95;3.30;;;;;;;;;;5077991;28;20040;-78
2024/03/09 07:27:43;;;;;;;4.32;3.17;;;;;;;;;;5082191;28;20016;-78
2024/03/09 07:30:14;;;;;;;5.82;3.75;;;;;;;;;;5076724;28;20044;-75
2024/03/09 07:32:43;;;;;;;3.50;2.85;;;;;;;;;;5091112;28;20048;-77
2024/03/09 07:35:16;;;;;;;4.38;3.03;;;;;;;;;;5085134;28;20021;-76
2024/03/09 07:37:46;;;;;;;4.40;3.10;;;;;;;;;;5091633;28;20051;-75
2024/03/09 07:40:13;;;;;;;4.07;2.60;;;;;;;;;;5069239;28;20020;-76
2024/03/09 07:42:39;;;;;;;4.13;3.08;;;;;;;;;;5060523;28;20360;-77
2024/03/09 07:45:13;;;;;;;3.78;2.83;;;;;;;;;;5060419;28;20036;-77
2024/03/09 07:47:43;;;;;;;4.72;3.03;;;;;;;;;;5059301;28;20024;-77
2024/03/09 07:50:14;;;;;;;3.88;2.63;;;;;;;;;;5058866;28;20488;-78
2024/03/09 07:53:00;;;;;;;4.95;3.25;;;;;;;;;;5090536;28;20027;-75
2024/03/09 07:55:27;;;;;;;4.82;3.10;;;;;;;;;;5068282;28;20029;-76
2024/03/09 07:57:54;;;;;;;4.07;2.63;;;;;;;;;;5057756;28;20471;-76
2024/03/09 08:00:27;;;;;;;5.07;3.53;;;;;;;;;;5074007;28;20108;-76
2024/03/09 08:02:53;;;;;;;5.25;3.55;;;;;;;;;;5050749;28;20021;-78
2024/03/09 08:05:20;;;;;;;5.28;3.83;;;;;;;;;;5072560;28;20386;-77
2024/03/09 08:07:47;;;;;;;5.10;3.40;;;;;;;;;;5075502;28;20021;-78
2024/03/09 08:10:14;;;;;;;5.25;3.40;;;;;;;;;;5087119;28;20028;-75
2024/03/09 08:12:40;;;;;;;5.97;4.07;;;;;;;;;;5082957;28;20039;-77
2024/03/09 08:15:08;;;;;;;6.40;4.18;;;;;;;;;;5076949;28;20032;-78
2024/03/09 08:17:34;;;;;;;6.88;4.75;;;;;;;;;;5066168;28;20495;-78
2024/03/09 08:20:00;;;;;;;7.65;4.35;;;;;;;;;;5074407;28;20028;-79
2024/03/09 08:22:27;;;;;;;7.38;5.05;;;;;;;;;;5075392;28;20031;-77
2024/03/09 08:24:53;;;;;;;6.25;4.50;;;;;;;;;;5074389;28;20063;-78
2024/03/09 08:27:20;;;;;;;8.27;5.43;;;;;;;;;;5074436;28;20032;-78
2024/03/09 08:29:46;;;;;;;7.38;5.20;;;;;;;;;;5074013;28;20027;-77
2024/03/09 08:32:12;;;;;;;9.85;6.38;;;;;;;;;;5061319;28;20025;-77
2024/03/09 08:34:38;;;;;;;7.68;5.30;;;;;;;;;;5086741;28;20082;-76
2024/03/09 08:37:08;;;;;;;6.85;5.00;;;;;;;;;;5081851;28;20465;-76
2024/03/09 08:39:35;;;;;;;7.97;5.38;;;;;;;;;;5071170;28;20343;-78
2024/03/09 08:42:01;;;;;;;7.88;5.22;;;;;;;;;;5070425;28;20017;-77
2024/03/09 08:44:28;;;;;;;6.50;4.53;;;;;;;;;;5077264;28;20035;-77
2024/03/09 08:46:54;;;;;;;6.15;4.57;;;;;;;;;;5060830;28;20023;-78
2024/03/09 08:49:20;;;;;;;8.77;6.38;;;;;;;;;;5059747;28;20174;-77
2024/03/09 08:51:47;;;;;;;9.40;6.88;;;;;;;;;;5078630;28;20430;-78
2024/03/09 08:54:13;;;;;;;8.35;6.47;;;;;;;;;;5078539;28;20029;-78
2024/03/09 08:56:39;;;;;;;7.57;5.55;;;;;;;;;;5078186;28;20047;-77
2024/03/09 08:59:05;;;;;;;6.82;5.20;;;;;;;;;;5078576;28;20381;-77
2024/03/09 09:01:31;;;;;;;6.03;4.65;;;;;;;;;;5077404;28;20091;-78
2024/03/09 09:04:03;;;;;;;6.20;4.78;;;;;;;;;;5063667;28;20343;-78
2024/03/09 09:06:30;;;;;;;6.57;4.55;;;;;;;;;;5061643;28;20036;-78
2024/03/09 09:09:00;;;;;;;6.32;4.65;;;;;;;;;;5065577;28;20182;-78
2024/03/09 09:11:28;;;;;;;5.30;4.00;;;;;;;;;;5077729;28;20024;-78
2024/03/09 09:13:54;;;;;;;5.28;3.92;;;;;;;;;;5078873;28;20368;-77
2024/03/09 09:16:20;;;;;;;4.63;3.20;;;;;;;;;;5079937;28;20032;-77
2024/03/09 09:18:47;;;;;;;5.57;3.97;;;;;;;;;;5060684;28;20043;-78
2024/03/09 09:21:14;;;;;;;8.35;5.70;;;;;;;;;;5077699;28;20028;-77
2024/03/09 09:23:41;;;;;;;6.78;4.93;;;;;;;;;;5048817;28;20033;-77
2024/03/09 09:26:07;;;;;;;5.78;4.63;;;;;;;;;;5077941;28;20029;-78
2024/03/09 09:28:33;;;;;;;5.57;4.07;;;;;;;;;;5060099;28;20028;-78
2024/03/09 09:30:59;;;;;;;5.72;4.40;;;;;;;;;;5066816;28;20024;-78
2024/03/09 09:33:26;;;;;;;5.45;4.53;;;;;;;;;;5088650;28;20051;-78
2024/03/09 09:35:55;;;;;;;5.03;3.72;;;;;;;;;;5090499;28;20025;-81
2024/03/09 09:38:21;;;;;;;4.75;3.78;;;;;;;;;;5090956;28;20577;-76
2024/03/09 09:40:51;;;;;;;3.40;3.05;;;;;;;;;;5081489;28;20181;-77
2024/03/09 09:43:18;;;;;;;3.53;3.22;;;;;;;;;;5090035;28;20084;-78
2024/03/09 09:45:45;;;;;;;5.10;3.00;;;;;;;;;;5089508;28;20032;-76
2024/03/09 09:48:11;;;;;;;6.78;4.28;;;;;;;;;;5077456;28;20112;-76
2024/03/09 09:50:37;;;;;;;5.38;3.92;;;;;;;;;;5082875;28;20027;-79
2024/03/09 09:53:07;;;;;;;4.65;3.70;;;;;;;;;;5074508;28;20073;-79
2024/03/09 09:55:36;;;;;;;5.35;3.95;;;;;;;;;;5077619;28;20463;-77
2024/03/09 09:58:02;;;;;;;3.90;3.20;;;;;;;;;;5077062;28;20046;-78
2024/03/09 10:00:28;;;;;;;3.67;3.10;;;;;;;;;;5077427;28;20020;-78
2024/03/09 10:02:58;;;;;;;4.22;3.17;;;;;;;;;;5059360;28;20025;-78
2024/03/09 10:05:25;;;;;;;5.60;2.90;;;;;;;;;;5051459;28;20029;-78
2024/03/09 10:08:04;;;;;;;4.95;3.92;;;;;;;;;;5070914;28;20020;-79
2024/03/09 10:10:35;;;;;;;5.07;3.67;;;;;;;;;;5076925;28;20048;-77
2024/03/09 10:13:08;;;;;;;4.57;3.05;;;;;;;;;;5077499;28;20108;-78
2024/03/09 10:15:35;;;;;;;4.72;3.38;;;;;;;;;;5077696;28;20371;-78
2024/03/09 10:18:02;;;;;;;4.72;3.47;;;;;;;;;;5073118;28;20081;-76
2024/03/09 10:20:32;;;;;;;3.53;2.78;;;;;;;;;;5075891;28;20040;-78
2024/03/09 10:23:01;;;;;;;3.72;3.03;;;;;;;;;;5068480;28;20028;-78
2024/03/09 10:25:28;;;;;;;3.75;3.30;;;;;;;;;;5077410;28;20021;-78
2024/03/09 10:28:01;;;;;;;5.38;4.03;;;;;;;;;;5058388;28;20028;-79
2024/03/09 10:30:27;;;;;;;6.10;4.03;;;;;;;;;;5079020;28;20020;-78
2024/03/09 10:32:55;;;;;;;4.78;3.63;;;;;;;;;;5082769;28;20483;-76
2024/03/09 10:35:25;;;;;;;5.25;3.70;;;;;;;;;;5081105;28;20024;-77
2024/03/09 10:37:57;;;;;;;4.18;2.88;;;;;;;;;;5079496;28;20027;-76
2024/03/09 10:40:27;;;;;;;3.97;2.58;;;;;;;;;;5077675;28;20025;-76
2024/03/09 10:42:54;;;;;;;2.65;2.22;;;;;;;;;;5079029;28;20511;-79
2024/03/09 10:45:30;;;;;;;3.55;2.90;;;;;;;;;;5063088;28;20055;-78
2024/03/09 10:47:57;;;;;;;2.00;1.80;;;;;;;;;;5076394;28;20017;-78
2024/03/09 10:50:28;;;;;;;5.45;3.60;;;;;;;;;;5076036;28;20017;-78
2024/03/09 10:53:09;;;;;;;3.90;3.13;;;;;;;;;;5078968;28;20013;-77
2024/03/09 10:55:52;;;;;;;3.25;2.78;;;;;;;;;;5077124;28;20050;-78
2024/03/09 10:58:18;;;;;;;;;;;;;;;;;;5079576;28;20383;-76
2024/03/09 11:00:52;;;;;;;5.15;3.50;;;;;;;;;;5076850;28;19904;-76
2024/03/09 11:03:23;;;;;;;4.38;3.53;;;;;;;;;;5076513;28;20096;-78
2024/03/09 11:05:52;;;;;;;3.47;3.08;;;;;;;;;;5067041;28;20039;-79
2024/03/09 11:08:19;;;;;;;4.68;3.28;;;;;;;;;;5077368;28;20025;-79
2024/03/09 11:10:46;;;;;;;4.47;3.17;;;;;;;;;;5076798;28;20009;-78
2024/03/09 11:13:13;;;;;;;3.33;2.83;;;;;;;;;;5076641;28;20103;-78
2024/03/09 11:15:40;;;;;;;3.50;3.13;;;;;;;;;;5076961;28;20513;-79
2024/03/09 11:18:07;;;;;;;3.53;3.22;;;;;;;;;;5072272;28;20131;-77
2024/03/09 11:20:36;;;;;;;3.72;3.10;;;;;;;;;;5075634;28;20124;-78
2024/03/09 11:23:02;;;;;;;2.20;2.00;;;;;;;;;;5076288;28;20474;-78
2024/03/09 11:25:35;;;;;;;2.35;2.15;;;;;;;;;;5076243;28;20024;-79
2024/03/09 11:28:02;;;;;;;2.65;2.30;;;;;;;;;;5075089;28;20025;-77
2024/03/09 11:30:30;;;;;;;2.38;2.17;;;;;;;;;;5075526;28;20027;-78
2024/03/09 11:32:56;;;;;;;3.30;2.70;;;;;;;;;;5076301;28;20081;-76
2024/03/09 11:35:33;;;;;;;5.03;3.25;;;;;;;;;;5049370;28;20029;-76
2024/03/09 11:38:17;;;;;;;4.05;3.67;;;;;;;;;;5072658;28;20016;-77
2024/03/09 11:40:46;;;;;;;4.32;3.13;;;;;;;;;;5069023;28;20021;-77
2024/03/09 11:43:14;;;;;;;2.83;2.30;;;;;;;;;;5078402;28;20080;-77
2024/03/09 11:45:41;;;;;;;2.45;2.25;;;;;;;;;;5058417;28;20483;-78
2024/03/09 11:48:08;;;;;;;3.33;2.28;;;;;;;;;;5075060;28;20348;-79
2024/03/09 11:50:44;;;;;;;2.22;2.00;;;;;;;;;;5057818;28;20036;-78
2024/03/09 11:53:10;;;;;;;1.55;1.38;;;;;;;;;;5074720;28;20028;-79
2024/03/09 11:55:41;;;;;;;2.10;1.50;;;;;;;;;;5075808;28;20028;-78
2024/03/09 11:58:07;;;;;;;1.03;0.97;;;;;;;;;;5075812;28;20029;-76
2024/03/09 12:00:35;;;;;;;3.70;1.63;;;;;;;;;;5076099;28;20055;-78
2024/03/09 12:03:13;;;;;;;1.77;1.40;;;;;;;;;;5069153;28;20020;-76
2024/03/09 12:05:40;;;;;;;2.30;1.80;;;;;;;;;;5080089;28;20078;-78
2024/03/09 12:08:10;;;;;;;2.65;1.60;;;;;;;;;;5079171;28;20029;-78
2024/03/09 12:10:37;;;;;;;1.95;1.42;;;;;;;;;;5073135;28;20055;-78
2024/03/09 12:13:04;;;;;;;1.58;1.20;;;;;;;;;;5075757;28;20093;-78
2024/03/09 12:15:31;;;;;;;1.35;1.25;;;;;;;;;;5076342;28;20321;-78
2024/03/09 12:17:57;;;;;;;1.40;1.30;;;;;;;;;;5075546;28;20104;-78
2024/03/09 12:20:24;;;;;;;2.38;1.42;;;;;;;;;;5074313;28;20425;-78
2024/03/09 12:22:50;;;;;;;1.10;1.08;;;;;;;;;;5056600;28;20509;-80
2024/03/09 12:25:17;;;;;;;1.33;1.20;;;;;;;;;;5080232;28;20048;-76
2024/03/09 12:27:43;;;;;;;0.93;0.93;;;;;;;;;;5072687;28;20031;-78
2024/03/09 12:30:11;;;;;;;1.40;1.30;;;;;;;;;;5075171;28;20032;-78
2024/03/09 12:32:38;;;;;;;2.08;1.38;;;;;;;;;;5074532;28;20016;-79
2024/03/09 12:35:05;;;;;;;1.30;1.10;;;;;;;;;;5074516;28;20426;-79
2024/03/09 12:37:31;;;;;;;3.00;1.17;;;;;;;;;;5068658;28;20078;-79
2024/03/09 12:40:19;;;;;;;1.40;1.25;;;;;;;;;;5073933;28;20016;-78
2024/03/09 12:42:46;;;;;;;1.40;1.23;;;;;;;;;;5073940;28;20216;-78
2024/03/09 12:45:22;;;;;;;1.42;1.33;;;;;;;;;;5060197;28;20375;-78
2024/03/09 12:47:50;;;;;;;1.83;1.65;;;;;;;;;;5044398;28;20060;-78
2024/03/09 12:50:17;;;;;;;1.60;1.05;;;;;;;;;;5069205;28;20032;-78
2024/03/09 12:52:48;;;;;;;0.75;0.75;;;;;;;;;;5056654;28;20028;-78
2024/03/09 12:55:19;;;;;;;1.38;1.27;;;;;;;;;;5075821;28;20073;-76
2024/03/09 12:57:49;;;;;;;1.20;0.88;;;;;;;;;;5076859;28;20021;-79
2024/03/09 13:00:19;;;;;;;1.00;1.00;;;;;;;;;;5060387;28;20024;-79
2024/03/09 13:02:50;;;;;;;2.13;1.70;;;;;;;;;;5073809;28;20547;-78
2024/03/09 13:05:20;;;;;;;3.40;1.50;;;;;;;;;;5090947;28;20029;-75
2024/03/09 13:07:46;;;;;;;2.10;1.90;;;;;;;;;;5092571;28;20128;-76
2024/03/09 13:10:21;;;;;;;1.90;1.35;;;;;;;;;;5081864;28;20056;-78
2024/03/09 13:12:47;;;;;;;3.58;1.50;;;;;;;;;;5075324;28;20031;-78
2024/03/09 13:15:25;;;;;;;1.70;1.55;;;;;;;;;;5076105;28;20105;-78
2024/03/09 13:17:51;;;;;;;1.80;1.27;;;;;;;;;;5050290;28;20021;-77
2024/03/09 13:20:18;;;;;;;2.20;1.30;;;;;;;;;;5063573;28;20032;-78
2024/03/09 13:22:48;;;;;;;1.15;1.15;;;;;;;;;;5076945;28;20035;-79
2024/03/09 13:25:14;;;;;;;1.02;1.00;;;;;;;;;;5057391;28;20430;-79
2024/03/09 13:27:41;;;;;;;1.20;1.17;;;;;;;;;;5075183;28;20108;-78
2024/03/09 13:30:17;;;;;;;1.38;0.80;;;;;;;;;;5064359;28;20382;-77
2024/03/09 13:32:47;;;;;;;1.15;0.82;;;;;;;;;;5075742;28;20012;-78
2024/03/09 13:35:19;;;;;;;0.75;0.75;;;;;;;;;;5063976;28;20170;-77
2024/03/09 13:37:46;;;;;;;1.63;0.95;;;;;;;;;;5076558;28;20036;-78
2024/03/09 13:40:13;;;;;;;0.50;0.50;;;;;;;;;;5062177;28;20028;-79
2024/03/09 13:42:39;;;;;;;0.55;0.55;;;;;;;;;;5079531;28;20063;-78
2024/03/09 13:45:09;;;;;;;0.80;0.52;;;;;;;;;;5078126;28;20024;-79
2024/03/09 13:47:39;;;;;;;0.57;0.57;;;;;;;;;;5076211;28;20032;-77
2024/03/09 13:50:09;;;;;;;1.45;1.20;;;;;;;;;;5077591;28;20024;-78
2024/03/09 13:52:36;;;;;;;1.77;1.67;;;;;;;;;;5060063;28;20051;-78
2024/03/09 13:55:10;;;;;;;1.55;1.35;;;;;;;;;;5076653;28;20065;-79
2024/03/09 13:57:40;;;;;;;1.60;1.50;;;;;;;;;;5059602;28;20032;-79
2024/03/09 14:00:07;;;;;;;1.33;1.23;;;;;;;;;;5059039;28;20029;-77
2024/03/09 14:02:36;;;;;;;2.35;1.60;;;;;;;;;;5064689;28;20048;-78
2024/03/09 14:05:07;;;;;;;4.38;2.00;;;;;;;;;;5077652;28;20066;-79
2024/03/09 14:07:33;;;;;;;2.03;1.55;;;;;;;;;;5061825;28;20031;-79
2024/03/09 14:10:00;;;;;;;2.30;1.92;;;;;;;;;;5076856;28;20102;-79
2024/03/09 14:12:26;;;;;;;4.38;1.80;;;;;;;;;;5078173;28;20129;-79
2024/03/09 14:14:53;;;;;;;2.70;2.40;;;;;;;;;;5077695;28;20088;-79
2024/03/09 14:17:20;;;;;;;3.83;3.00;;;;;;;;;;5077794;28;20028;-78
2024/03/09 14:19:50;;;;;;;3.90;2.25;;;;;;;;;;5077732;28;20036;-78
2024/03/09 14:22:20;;;;;;;2.50;2.30;;;;;;;;;;5079424;28;20404;-79
2024/03/09 14:24:46;;;;;;;3.20;2.13;;;;;;;;;;5079137;28;20441;-77
2024/03/09 14:27:19;;;;;;;1.95;1.73;;;;;;;;;;5079364;28;20024;-78
2024/03/09 14:29:49;;;;;;;2.45;1.83;;;;;;;;;;5077961;28;20067;-78
2024/03/09 14:32:18;;;;;;;4.25;3.10;;;;;;;;;;5083161;28;20444;-79
2024/03/09 14:34:45;;;;;;;4.45;2.65;;;;;;;;;;5092629;28;20029;-76
2024/03/09 14:37:12;;;;;;;3.05;2.75;;;;;;;;;;5073858;28;20108;-79
2024/03/09 14:39:39;;;;;;;3.92;2.70;;;;;;;;;;5077012;28;20027;-79
2024/03/09 14:42:06;;;;;;;4.00;2.50;;;;;;;;;;5076816;28;20040;-78
2024/03/09 14:44:33;;;;;;;4.57;2.30;;;;;;;;;;5076803;28;20044;-79
2024/03/09 14:47:04;;;;;;;3.67;2.75;;;;;;;;;;5060049;28;20118;-78
2024/03/09 14:49:31;;;;;;;4.22;3.58;;;;;;;;;;5078881;28;20070;-78